Time;durP1;ratioP1;P1;durP2;ratioP2;P2;SDS_P1;SDS_P2;PMS_P1;PMS_P2;Temp;Humidity;BMP_temperature;BMP_pressure;BME280_temperature;BME280_humidity;BME280_pressure;Samples;Min_cycle;Max_cycle;Signal;HPM_P1;HPM_P2
2022/07/26 00:01:01;;;;;;;2.97;2.26;;;;;;;21.34;68.32;100019.80;445320;119;922433;-79
2022/07/26 00:02:05;;;;;;;2.49;2.16;;;;;;;21.34;68.31;100009.53;445307;119;922527;-79
2022/07/26 00:03:08;;;;;;;4.73;2.46;;;;;;;21.33;68.33;100016.22;445251;119;922595;-79
2022/07/26 00:04:11;;;;;;;3.35;2.27;;;;;;;21.31;68.34;100007.37;445303;119;922944;-78
2022/07/26 00:05:17;;;;;;;3.32;2.32;;;;;;;21.31;68.38;100012.09;445350;119;922661;-78
2022/07/26 00:06:21;;;;;;;2.33;2.13;;;;;;;21.29;68.44;100008.78;445213;119;923217;-79
2022/07/26 00:07:24;;;;;;;2.64;2.44;;;;;;;21.27;68.46;99999.95;447134;118;922583;-78
2022/07/26 00:08:27;;;;;;;5.78;2.88;;;;;;;21.26;68.60;100010.22;447515;118;922575;-78
2022/07/26 00:09:30;;;;;;;4.83;3.14;;;;;;;21.25;68.63;100013.28;447529;118;922552;-76
2022/07/26 00:10:37;;;;;;;4.73;2.65;;;;;;;21.24;68.53;100001.36;447349;118;922927;-78
2022/07/26 00:11:39;;;;;;;3.88;2.66;;;;;;;21.23;68.57;100005.25;447007;117;922896;-76
2022/07/26 00:12:42;;;;;;;3.06;2.12;;;;;;;21.23;68.64;100007.23;437939;119;930550;-76
2022/07/26 00:13:47;;;;;;;3.63;2.22;;;;;;;21.21;68.73;100002.80;449816;118;923052;-78
2022/07/26 00:14:50;;;;;;;3.00;2.24;;;;;;;21.20;68.69;100006.69;452519;116;922573;-78
2022/07/26 00:15:53;;;;;;;2.77;2.41;;;;;;;21.19;68.75;99999.49;457737;116;922582;-78
2022/07/26 00:16:56;;;;;;;2.34;2.14;;;;;;;21.19;68.78;99998.66;457672;116;922628;-78
2022/07/26 00:17:59;;;;;;;3.28;2.33;;;;;;;21.17;68.81;99998.95;457736;116;923505;-78
2022/07/26 00:19:03;;;;;;;2.62;2.42;;;;;;;21.16;68.87;100000.11;457702;116;922539;-78
2022/07/26 00:20:08;;;;;;;2.81;2.14;;;;;;;21.15;68.91;100005.94;457542;116;922599;-78
2022/07/26 00:21:11;;;;;;;2.45;2.24;;;;;;;21.14;68.94;100001.48;457627;116;922587;-78
2022/07/26 00:22:33;;;;;;;3.06;1.95;;;;;;;21.12;69.06;99999.00;457693;116;922902;-77
2022/07/26 00:23:36;;;;;;;2.44;2.19;;;;;;;21.11;69.01;100002.92;457470;116;922501;-77
2022/07/26 00:24:38;;;;;;;3.69;2.49;;;;;;;21.10;69.12;99995.72;457641;116;922488;-77
2022/07/26 00:25:42;;;;;;;2.98;2.50;;;;;;;21.10;69.19;99992.95;457690;116;922547;-77
2022/07/26 00:26:45;;;;;;;2.31;2.11;;;;;;;21.10;69.18;99995.72;457690;116;922529;-77
2022/07/26 00:27:49;;;;;;;2.23;2.06;;;;;;;21.08;69.22;99989.63;457607;116;922552;-77
2022/07/26 00:28:52;;;;;;;2.38;2.18;;;;;;;21.09;69.27;99996.01;457596;116;930361;-77
2022/07/26 00:29:55;;;;;;;1.99;1.85;;;;;;;21.07;69.25;99990.75;454791;116;930362;-77
2022/07/26 00:30:58;;;;;;;2.36;2.15;;;;;;;21.06;69.30;99994.64;456305;116;922590;-77
2022/07/26 00:32:01;;;;;;;2.19;2.09;;;;;;;21.06;69.31;100004.94;457613;116;923028;-77
2022/07/26 00:33:05;;;;;;;2.08;1.91;;;;;;;21.04;69.36;99988.59;457607;116;922561;-77
2022/07/26 00:34:08;;;;;;;4.58;2.16;;;;;;;21.05;69.43;100000.51;452852;116;922776;-77
2022/07/26 00:35:11;;;;;;;2.96;2.06;;;;;;;21.03;69.42;100002.74;449414;118;922559;-77
2022/07/26 00:36:15;;;;;;;2.74;2.04;;;;;;;21.03;69.48;100003.56;449338;118;922533;-77
2022/07/26 00:37:19;;;;;;;3.58;1.97;;;;;;;21.01;69.52;100005.80;449417;118;922874;-77
2022/07/26 00:38:23;;;;;;;2.72;2.28;;;;;;;21.00;69.55;100006.95;449231;118;922521;-77
2022/07/26 00:39:27;;;;;;;2.74;2.08;;;;;;;21.00;69.59;100012.49;449217;117;930473;-77
2022/07/26 00:40:31;;;;;;;2.75;2.17;;;;;;;20.99;69.66;100010.01;449168;118;930386;-77
2022/07/26 00:41:35;;;;;;;2.36;2.16;;;;;;;20.99;69.70;100010.01;449363;118;930339;-77
2022/07/26 00:42:37;;;;;;;3.92;2.38;;;;;;;20.98;69.72;100011.95;449287;118;922614;-78
2022/07/26 00:43:58;;;;;;;2.21;2.04;;;;;;;20.98;69.70;100011.95;449359;118;923239;-78
2022/07/26 00:45:01;;;;;;;2.69;2.46;;;;;;;20.98;69.74;100005.58;449111;118;922622;-77
2022/07/26 00:46:04;;;;;;;2.44;1.97;;;;;;;20.96;69.81;100008.64;449412;118;922981;-77
2022/07/26 00:47:07;;;;;;;1.94;1.84;;;;;;;;;;449461;118;922512;-77
2022/07/26 00:48:10;;;;;;;2.67;1.91;;;;;;;20.94;69.92;100005.36;444082;119;922754;-77
2022/07/26 00:49:13;;;;;;;2.74;1.92;;;;;;;20.94;69.90;100007.31;449345;117;922582;-77
2022/07/26 00:50:18;;;;;;;2.45;1.97;;;;;;;20.92;69.90;100002.05;449238;118;922540;-77
2022/07/26 00:51:22;;;;;;;1.88;1.72;;;;;;;20.92;70.00;100007.59;449232;118;930303;-77
2022/07/26 00:52:25;;;;;;;2.40;2.16;;;;;;;20.91;69.88;100005.94;449296;118;922599;-77
2022/07/26 00:53:28;;;;;;;2.89;1.82;;;;;;;20.91;69.92;100005.11;449343;118;930390;-77
2022/07/26 00:54:32;;;;;;;1.97;1.86;;;;;;;20.90;70.00;100004.28;449407;117;922552;-77
2022/07/26 00:55:35;;;;;;;2.26;2.06;;;;;;;20.90;70.03;100009.00;449403;118;922510;-77
2022/07/26 00:56:38;;;;;;;3.72;1.99;;;;;;;20.89;70.02;100010.15;449425;118;922882;-77
2022/07/26 00:57:42;;;;;;;2.49;1.94;;;;;;;20.89;70.10;100010.15;449293;118;922889;-77
2022/07/26 00:58:45;;;;;;;2.42;2.09;;;;;;;20.88;70.13;100008.49;449223;118;930336;-77
2022/07/26 00:59:48;;;;;;;2.02;1.87;;;;;;;20.88;70.14;100022.34;449407;117;922999;-78
2022/07/26 01:00:52;;;;;;;2.31;2.14;;;;;;;20.88;70.19;100014.03;449457;118;922550;-77
2022/07/26 01:01:56;;;;;;;1.97;1.86;;;;;;;20.87;70.16;100013.20;449337;118;923094;-77
2022/07/26 01:02:59;;;;;;;1.82;1.72;;;;;;;20.87;70.18;100012.38;449308;118;922530;-78
2022/07/26 01:04:02;;;;;;;2.10;1.89;;;;;;;20.87;70.22;100012.38;449380;118;930509;-77
2022/07/26 01:05:06;;;;;;;2.16;1.96;;;;;;;20.86;70.18;100006.02;449415;118;922523;-77
2022/07/26 01:06:10;;;;;;;2.72;1.93;;;;;;;20.87;70.17;100012.38;449280;118;922544;-77
2022/07/26 01:07:13;;;;;;;1.75;1.65;;;;;;;20.85;70.28;100009.90;449696;118;922520;-77
2022/07/26 01:08:18;;;;;;;1.66;1.56;;;;;;;20.85;70.21;100011.84;447386;118;923371;-77
2022/07/26 01:09:21;;;;;;;2.08;1.63;;;;;;;20.85;70.23;100012.67;449692;118;922872;-77
2022/07/26 01:10:26;;;;;;;1.99;1.87;;;;;;;20.84;70.26;100015.76;454375;116;922588;-77
2022/07/26 01:11:29;;;;;;;1.99;1.81;;;;;;;20.83;70.34;100011.33;454877;116;923783;-77
2022/07/26 01:12:32;;;;;;;1.91;1.71;;;;;;;20.82;70.25;100010.50;454892;116;922483;-77
2022/07/26 01:13:35;;;;;;;1.75;1.63;;;;;;;20.83;70.33;100012.16;454749;116;922984;-77
2022/07/26 01:14:43;;;;;;;2.73;1.87;;;;;;;20.82;70.34;100010.50;463889;114;922532;-77
2022/07/26 01:15:46;;;;;;;5.03;2.07;;;;;;;20.80;70.29;100013.56;456336;116;923318;-77
2022/07/26 01:16:50;;;;;;;1.84;1.74;;;;;;;20.80;70.26;100013.56;456562;116;922530;-77
2022/07/26 01:17:53;;;;;;;1.81;1.59;;;;;;;20.80;70.30;100013.56;456536;116;922661;-77
2022/07/26 01:18:56;;;;;;;3.48;1.81;;;;;;;20.79;70.27;100016.62;456532;116;923004;-77
2022/07/26 01:20:00;;;;;;;2.22;2.04;;;;;;;20.77;70.26;100005.85;456614;116;922524;-77
2022/07/26 01:21:05;;;;;;;2.59;2.07;;;;;;;20.78;70.26;100007.48;456616;116;922740;-77
2022/07/26 01:22:10;;;;;;;2.16;1.96;;;;;;;20.77;70.26;100005.85;455573;116;922565;-77
2022/07/26 01:23:16;;;;;;;2.26;2.04;;;;;;;20.76;70.22;100008.91;456201;116;922697;-77
2022/07/26 01:24:19;;;;;;;4.26;1.70;;;;;;;20.75;70.17;100015.57;456417;116;922925;-77
2022/07/26 01:25:31;;;;;;;1.74;1.64;;;;;;;20.75;70.17;100015.57;456557;116;923135;-77
2022/07/26 01:26:38;;;;;;;2.18;1.68;;;;;;;20.74;70.20;100016.69;455061;116;922929;-77
2022/07/26 01:27:41;;;;;;;2.54;1.85;;;;;;;20.72;70.24;100011.46;456524;116;922540;-77
2022/07/26 01:28:45;;;;;;;2.13;1.95;;;;;;;20.71;70.24;100009.80;456420;116;922587;-77
2022/07/26 01:29:50;;;;;;;1.98;1.69;;;;;;;20.71;70.20;100006.20;456970;116;923277;-77
2022/07/26 01:30:53;;;;;;;2.24;1.62;;;;;;;20.68;70.20;100004.02;463159;114;922967;-77
2022/07/26 01:31:56;;;;;;;1.87;1.75;;;;;;;20.67;70.25;100011.52;465455;114;922567;-77
2022/07/26 01:32:59;;;;;;;1.99;1.86;;;;;;;20.66;70.31;100004.33;465446;114;923070;-77
2022/07/26 01:34:02;;;;;;;2.08;1.86;;;;;;;20.67;70.33;100002.39;460681;114;922560;-77
2022/07/26 01:35:06;;;;;;;2.45;1.69;;;;;;;20.66;70.15;100009.05;455154;116;923330;-77
2022/07/26 01:36:11;;;;;;;2.11;2.01;;;;;;;20.65;70.10;100001.84;454982;116;923119;-77
2022/07/26 01:37:14;;;;;;;2.06;1.86;;;;;;;20.64;70.17;100003.78;455074;116;923252;-77
2022/07/26 01:38:17;;;;;;;1.62;1.52;;;;;;;20.64;70.15;100008.50;455169;116;922922;-77
2022/07/26 01:39:20;;;;;;;2.14;2.02;;;;;;;20.63;70.11;100002.13;455213;116;922601;-77
2022/07/26 01:40:25;;;;;;;3.06;1.98;;;;;;;20.62;70.16;100007.98;454732;116;922528;-77
2022/07/26 01:41:28;;;;;;;1.87;1.74;;;;;;;20.62;70.20;100006.02;455264;116;923039;-77
2022/07/26 01:42:33;;;;;;;2.01;1.86;;;;;;;20.64;70.29;100002.95;453814;116;922522;-77
2022/07/26 01:43:36;;;;;;;1.98;1.71;;;;;;;20.66;70.35;100011.81;455233;116;923314;-77
2022/07/26 01:44:39;;;;;;;2.25;2.07;;;;;;;20.69;70.31;100011.20;455180;116;923093;-77
2022/07/26 01:45:43;;;;;;;2.11;1.84;;;;;;;20.70;70.24;100013.69;455215;116;922468;-77
2022/07/26 01:46:46;;;;;;;2.66;1.71;;;;;;;20.71;70.07;100003.44;455210;116;922949;-77
2022/07/26 01:47:49;;;;;;;1.82;1.71;;;;;;;20.72;70.06;100010.63;455181;116;922494;-77
2022/07/26 01:48:52;;;;;;;1.96;1.86;;;;;;;20.72;70.06;100013.41;455234;116;922582;-77
2022/07/26 01:49:57;;;;;;;2.06;1.91;;;;;;;20.74;70.19;100011.97;455056;116;923054;-77
2022/07/26 01:51:00;;;;;;;1.93;1.79;;;;;;;20.76;70.10;100017.23;455203;116;923022;-77
2022/07/26 01:52:03;;;;;;;1.78;1.68;;;;;;;20.78;70.11;100017.77;455256;116;922622;-77
2022/07/26 01:53:07;;;;;;;3.29;2.03;;;;;;;20.79;70.04;100022.16;455140;116;923100;-77
2022/07/26 01:54:10;;;;;;;2.46;1.85;;;;;;;20.81;69.95;100017.98;455215;116;922674;-77
2022/07/26 01:55:14;;;;;;;5.03;1.96;;;;;;;20.82;69.73;100021.59;455103;116;922782;-77
2022/07/26 01:56:17;;;;;;;2.01;1.87;;;;;;;20.81;69.72;100029.07;455192;116;922542;-77
2022/07/26 01:57:20;;;;;;;2.74;2.12;;;;;;;20.82;69.59;100038.21;455244;116;922529;-77
2022/07/26 01:58:23;;;;;;;2.64;1.70;;;;;;;20.82;69.53;100038.21;455206;116;922814;-77
2022/07/26 01:59:26;;;;;;;2.57;2.37;;;;;;;20.81;69.55;100029.07;455245;116;922921;-77
2022/07/26 02:00:29;;;;;;;3.67;3.08;;;;;;;20.81;69.56;100023.53;455208;116;922545;-77
2022/07/26 02:01:32;;;;;;;4.71;3.52;;;;;;;20.83;69.52;100028.78;455202;116;922743;-77
2022/07/26 02:02:37;;;;;;;4.72;3.66;;;;;;;20.83;69.52;100039.04;454227;116;922864;-77
2022/07/26 02:03:40;;;;;;;4.67;4.23;;;;;;;20.83;69.35;100034.33;455066;116;923310;-77
2022/07/26 02:04:59;;;;;;;5.53;4.51;;;;;;;20.83;69.23;100036.27;459198;114;924503;-77
2022/07/26 02:06:04;;;;;;;8.09;5.10;;;;;;;20.81;69.12;100029.07;460964;115;922883;-77
2022/07/26 02:07:07;;;;;;;5.86;4.34;;;;;;;20.79;69.02;100024.93;463176;114;923155;-77
2022/07/26 02:08:13;;;;;;;5.02;4.18;;;;;;;20.78;68.93;100028.84;465187;114;922620;-77
2022/07/26 02:09:16;;;;;;;6.19;4.58;;;;;;;20.75;68.92;100032.19;465412;114;922633;-77
2022/07/26 02:10:19;;;;;;;5.28;4.61;;;;;;;20.73;68.91;100032.48;465397;114;923089;-77
2022/07/26 02:11:24;;;;;;;4.94;4.41;;;;;;;20.72;68.93;100041.11;465229;114;922562;-77
2022/07/26 02:12:28;;;;;;;5.16;4.11;;;;;;;20.72;68.99;100038.34;465289;114;922819;-77
2022/07/26 02:13:34;;;;;;;4.88;4.03;;;;;;;20.70;69.02;100030.31;464649;113;922882;-77
2022/07/26 02:14:37;;;;;;;7.00;3.58;;;;;;;20.70;68.94;100029.48;456454;116;922543;-77
2022/07/26 02:15:41;;;;;;;4.17;3.76;;;;;;;20.70;68.92;100035.02;450035;117;922503;-77
2022/07/26 02:16:44;;;;;;;4.31;3.30;;;;;;;20.69;68.97;100036.14;449946;118;923021;-77
2022/07/26 02:17:47;;;;;;;4.08;3.06;;;;;;;20.67;68.94;100033.69;450091;118;923094;-77
2022/07/26 02:18:50;;;;;;;4.27;3.80;;;;;;;20.67;68.90;100035.62;450021;118;922652;-77
2022/07/26 02:19:53;;;;;;;3.66;3.34;;;;;;;20.66;68.91;100037.57;450036;116;922500;-77
2022/07/26 02:20:58;;;;;;;4.12;3.42;;;;;;;20.65;68.92;100030.37;450054;118;922549;-77
2022/07/26 02:22:01;;;;;;;3.89;2.92;;;;;;;20.66;68.92;100033.97;449895;118;922952;-77
2022/07/26 02:23:05;;;;;;;3.36;3.06;;;;;;;20.65;68.91;100033.14;450015;118;930538;-77
2022/07/26 02:24:08;;;;;;;5.54;3.76;;;;;;;20.64;68.90;100033.43;449955;118;923055;-77
2022/07/26 02:25:12;;;;;;;3.70;3.38;;;;;;;20.64;68.92;100037.03;449948;118;930526;-77
2022/07/26 02:26:16;;;;;;;3.89;3.43;;;;;;;20.62;68.98;100039.25;449916;118;930509;-77
2022/07/26 02:27:19;;;;;;;6.92;3.34;;;;;;;20.61;69.00;100040.41;450089;118;922999;-77
2022/07/26 02:28:22;;;;;;;3.29;2.99;;;;;;;20.60;69.02;100035.14;450089;117;922596;-77
2022/07/26 02:29:26;;;;;;;3.51;2.79;;;;;;;20.60;69.05;100041.52;450392;116;922649;-77
2022/07/26 02:30:29;;;;;;;3.58;2.69;;;;;;;20.59;69.13;100036.26;456963;116;922893;-77
2022/07/26 02:31:32;;;;;;;2.77;2.58;;;;;;;20.59;69.30;100041.80;457940;116;922653;-77
2022/07/26 02:32:35;;;;;;;2.64;2.42;;;;;;;20.59;69.31;100042.62;457924;116;923311;-77
2022/07/26 02:33:38;;;;;;;3.17;2.52;;;;;;;20.59;69.36;100045.40;457952;116;922971;-77
2022/07/26 02:34:41;;;;;;;2.64;2.44;;;;;;;20.60;69.38;100041.52;457914;116;922924;-77
2022/07/26 02:35:45;;;;;;;2.78;2.50;;;;;;;20.60;69.44;100044.28;457946;116;922824;-78
2022/07/26 02:36:48;;;;;;;4.19;3.08;;;;;;;20.62;69.52;100044.00;457878;116;922774;-78
2022/07/26 02:37:51;;;;;;;3.16;2.94;;;;;;;20.65;69.70;100047.00;457874;116;922876;-78
2022/07/26 02:38:54;;;;;;;2.59;2.33;;;;;;;20.68;69.76;100053.87;457979;116;922594;-78
2022/07/26 02:39:57;;;;;;;2.92;2.67;;;;;;;20.70;69.80;100052.48;457975;116;922537;-77
2022/07/26 02:41:00;;;;;;;2.69;2.49;;;;;;;20.74;69.80;100047.98;457956;116;922491;-78
2022/07/26 02:42:03;;;;;;;3.42;2.57;;;;;;;20.78;69.79;100051.81;458000;116;922888;-77
2022/07/26 02:43:08;;;;;;;2.98;2.75;;;;;;;20.80;69.67;100052.35;457993;116;922903;-78
2022/07/26 02:44:11;;;;;;;2.70;2.25;;;;;;;20.83;69.56;100050.95;457822;116;922934;-78
2022/07/26 02:45:14;;;;;;;2.89;2.69;;;;;;;20.84;69.45;100047.03;457890;116;922582;-78
2022/07/26 02:46:17;;;;;;;3.57;2.77;;;;;;;20.85;69.29;100050.64;457857;116;930377;-77
2022/07/26 02:47:21;;;;;;;2.80;2.54;;;;;;;20.85;69.25;100054.23;457977;116;923006;-77
2022/07/26 02:48:23;;;;;;;2.92;2.64;;;;;;;20.84;69.21;100058.12;457957;116;922644;-78
2022/07/26 02:49:27;;;;;;;3.08;2.84;;;;;;;20.85;69.15;100054.23;457924;116;923562;-78
2022/07/26 02:50:30;;;;;;;3.00;2.67;;;;;;;20.85;69.14;100057.00;458016;116;923191;-78
2022/07/26 02:51:33;;;;;;;2.93;2.72;;;;;;;20.86;69.12;100053.12;457995;116;922614;-78
2022/07/26 02:52:36;;;;;;;3.17;2.64;;;;;;;20.87;69.05;100052.00;457979;116;922531;-78
2022/07/26 02:53:39;;;;;;;2.89;2.67;;;;;;;20.87;69.14;100052.00;458023;116;923090;-78
2022/07/26 02:54:42;;;;;;;3.29;2.58;;;;;;;20.87;69.04;100052.00;458032;116;922617;-77
2022/07/26 02:55:45;;;;;;;3.17;2.86;;;;;;;20.87;69.11;100048.41;458038;116;922597;-78
2022/07/26 02:56:48;;;;;;;3.24;2.67;;;;;;;20.88;68.96;100050.06;457972;116;922557;-78
2022/07/26 02:57:51;;;;;;;2.53;2.36;;;;;;;20.88;69.01;100050.89;458002;116;922519;-78
2022/07/26 02:58:54;;;;;;;2.71;2.48;;;;;;;20.89;68.96;100055.31;457954;116;922471;-77
2022/07/26 02:59:58;;;;;;;3.15;2.67;;;;;;;20.89;68.84;100055.31;458006;116;922623;-77
2022/07/26 03:01:01;;;;;;;2.89;2.41;;;;;;;20.89;68.88;100046.17;457955;116;922556;-77
2022/07/26 03:02:04;;;;;;;4.26;2.33;;;;;;;20.90;68.81;100047.80;457940;116;923036;-77
2022/07/26 03:03:07;;;;;;;2.34;2.21;;;;;;;20.89;68.90;100049.77;457906;116;923093;-77
2022/07/26 03:04:10;;;;;;;2.37;2.26;;;;;;;20.90;68.97;100051.40;457973;116;922748;-77
2022/07/26 03:05:14;;;;;;;2.34;2.21;;;;;;;20.93;68.97;100055.54;457937;116;922613;-77
2022/07/26 03:06:18;;;;;;;2.97;2.66;;;;;;;20.95;69.10;100056.08;457962;116;923158;-77
2022/07/26 03:07:21;;;;;;;3.39;2.49;;;;;;;20.98;69.06;100055.47;451876;116;922545;-77
2022/07/26 03:08:24;;;;;;;3.34;3.00;;;;;;;21.00;69.08;100051.30;450099;118;922838;-77
2022/07/26 03:09:27;;;;;;;2.91;2.67;;;;;;;21.03;68.95;100052.64;450126;118;922744;-77
2022/07/26 03:10:30;;;;;;;2.75;2.24;;;;;;;21.04;68.83;100051.52;450144;118;922582;-77
2022/07/26 03:11:33;;;;;;;2.96;2.26;;;;;;;21.05;68.76;100044.86;450167;118;923059;-77
2022/07/26 03:12:36;;;;;;;3.26;2.73;;;;;;;21.05;68.67;100045.69;450137;118;922856;-77
2022/07/26 03:13:39;;;;;;;3.08;2.74;;;;;;;21.04;68.63;100041.26;450118;118;923122;-77
2022/07/26 03:14:42;;;;;;;2.69;2.39;;;;;;;21.04;68.52;100041.26;457828;114;922568;-77
2022/07/26 03:15:45;;;;;;;2.81;2.60;;;;;;;21.05;68.57;100039.31;465418;114;922568;-77
2022/07/26 03:16:49;;;;;;;2.81;2.54;;;;;;;21.04;68.57;100041.26;465392;114;922701;-77
2022/07/26 03:17:52;;;;;;;2.87;2.62;;;;;;;21.04;68.57;100044.03;465393;114;922482;-77
2022/07/26 03:18:55;;;;;;;2.94;2.47;;;;;;;21.05;68.68;100033.77;465326;114;922930;-77
2022/07/26 03:19:58;;;;;;;3.34;2.55;;;;;;;21.05;68.58;100040.14;465348;114;922887;-77
2022/07/26 03:21:02;;;;;;;3.16;2.67;;;;;;;21.05;68.60;100036.55;465288;114;922566;-77
2022/07/26 03:22:05;;;;;;;3.01;2.54;;;;;;;21.05;68.67;100042.91;465315;114;922877;-77
2022/07/26 03:23:08;;;;;;;3.13;2.83;;;;;;;21.06;68.69;100041.77;465385;114;922520;-77
2022/07/26 03:24:11;;;;;;;2.81;2.61;;;;;;;21.07;68.77;100043.42;465378;114;922598;-77
2022/07/26 03:25:14;;;;;;;5.02;3.06;;;;;;;21.08;68.68;100038.70;465361;114;922552;-77
2022/07/26 03:26:18;;;;;;;3.24;2.54;;;;;;;21.08;68.73;100033.16;465325;114;922891;-77
2022/07/26 03:27:21;;;;;;;4.09;2.95;;;;;;;21.09;68.83;100032.05;465296;114;930296;-77
2022/07/26 03:28:24;;;;;;;2.91;2.71;;;;;;;21.10;68.97;100028.98;465394;114;923013;-77
2022/07/26 03:29:27;;;;;;;3.33;2.94;;;;;;;21.12;68.86;100034.20;464838;114;922669;-77
2022/07/26 03:30:30;;;;;;;3.29;2.52;;;;;;;21.13;68.84;100033.09;460216;114;922652;-77
2022/07/26 03:31:33;;;;;;;2.67;2.47;;;;;;;21.14;68.70;100031.97;465489;114;922557;-77
2022/07/26 03:32:36;;;;;;;2.79;2.59;;;;;;;21.14;68.65;100026.43;465494;114;922540;-77
2022/07/26 03:33:40;;;;;;;3.35;3.10;;;;;;;21.14;68.64;100023.66;464363;114;922616;-77
2022/07/26 03:34:43;;;;;;;3.26;2.94;;;;;;;21.13;68.50;100028.38;457233;116;922978;-77
2022/07/26 03:35:46;;;;;;;4.54;2.52;;;;;;;21.13;68.50;100030.32;457397;116;922503;-77
2022/07/26 03:36:49;;;;;;;3.04;2.64;;;;;;;21.12;68.54;100029.48;457320;116;922701;-77
2022/07/26 03:37:52;;;;;;;2.71;2.33;;;;;;;21.13;68.54;100022.00;457404;116;923079;-77
2022/07/26 03:38:55;;;;;;;5.62;2.83;;;;;;;21.12;68.58;100021.17;457300;116;922499;-77
2022/07/26 03:39:58;;;;;;;3.01;2.81;;;;;;;21.13;68.52;100030.32;457371;116;923022;-78
2022/07/26 03:41:02;;;;;;;3.01;2.74;;;;;;;21.14;68.59;100030.06;457327;114;922562;-78
2022/07/26 03:42:05;;;;;;;2.65;2.45;;;;;;;21.13;68.63;100028.38;465449;113;922845;-78
2022/07/26 03:43:08;;;;;;;2.70;2.50;;;;;;;21.14;68.63;100038.38;465436;113;922535;-78
2022/07/26 03:44:11;;;;;;;3.67;2.87;;;;;;;21.13;68.57;100030.32;465395;113;922664;-78
2022/07/26 03:45:15;;;;;;;3.48;3.14;;;;;;;21.13;68.59;100039.47;465408;114;922606;-78
2022/07/26 03:46:18;;;;;;;3.46;3.11;;;;;;;21.13;68.67;100035.86;465344;113;922561;-78
2022/07/26 03:47:21;;;;;;;3.50;3.11;;;;;;;21.13;68.81;100038.64;465422;113;922501;-78
2022/07/26 03:48:24;;;;;;;3.28;3.03;;;;;;;21.14;68.84;100043.06;465402;114;922525;-78
2022/07/26 03:49:27;;;;;;;2.67;2.51;;;;;;;21.15;68.88;100036.44;465428;114;923191;-78
2022/07/26 03:50:30;;;;;;;3.00;2.73;;;;;;;21.18;68.91;100041.38;465437;114;922499;-78
2022/07/26 03:51:33;;;;;;;5.06;2.90;;;;;;;21.19;68.99;100040.25;465470;114;922895;-77
2022/07/26 03:52:36;;;;;;;4.16;2.84;;;;;;;21.20;68.93;100042.73;465487;114;922597;-78
2022/07/26 03:53:39;;;;;;;3.19;2.99;;;;;;;21.23;68.85;100044.90;465512;114;922517;-78
2022/07/26 03:54:42;;;;;;;2.72;2.49;;;;;;;21.25;68.73;100043.78;465517;114;923291;-78
2022/07/26 03:57:07;;;;;;;2.65;2.24;;;;;;;21.26;68.67;100039.89;462894;114;922974;-78
2022/07/26 03:58:10;;;;;;;4.19;2.89;;;;;;;21.27;68.69;100044.31;461220;115;923079;-78
2022/07/26 03:59:13;;;;;;;2.88;2.48;;;;;;;21.26;68.61;100043.49;461208;115;922596;-78
2022/07/26 04:00:17;;;;;;;3.22;2.98;;;;;;;21.27;68.62;100045.15;461216;115;922592;-78
2022/07/26 04:01:20;;;;;;;2.86;2.66;;;;;;;21.27;68.58;100042.38;461167;115;922775;-78
2022/07/26 04:02:23;;;;;;;2.95;2.75;;;;;;;21.29;68.51;100044.83;461102;115;922599;-78
2022/07/26 04:03:26;;;;;;;4.17;2.85;;;;;;;21.29;68.47;100050.37;461105;115;930327;-78
2022/07/26 04:04:29;;;;;;;3.41;3.13;;;;;;;21.30;68.53;100044.53;461188;115;922518;-78
2022/07/26 04:05:32;;;;;;;3.02;2.77;;;;;;;21.32;68.52;100049.80;461240;115;922968;-78
2022/07/26 04:06:37;;;;;;;2.88;2.42;;;;;;;21.33;68.51;100054.22;461241;114;922855;-78
2022/07/26 04:07:42;;;;;;;4.06;2.58;;;;;;;21.34;68.53;100041.98;465366;114;923003;-78
2022/07/26 04:08:45;;;;;;;2.74;2.55;;;;;;;21.36;68.54;100048.89;465254;114;922609;-78
2022/07/26 04:09:48;;;;;;;3.08;2.68;;;;;;;21.38;68.52;100049.42;465324;114;930303;-77
2022/07/26 04:10:51;;;;;;;2.75;2.55;;;;;;;21.41;68.52;100050.77;465334;114;922781;-78
2022/07/26 04:11:54;;;;;;;2.93;2.70;;;;;;;21.44;68.46;100047.41;465411;114;923000;-78
2022/07/26 04:12:57;;;;;;;2.98;2.79;;;;;;;21.45;68.39;100051.80;465401;114;922855;-78
2022/07/26 04:14:00;;;;;;;3.38;2.72;;;;;;;21.46;68.32;100051.52;465318;114;922621;-78
2022/07/26 04:15:05;;;;;;;3.06;2.86;;;;;;;21.45;68.28;100049.03;460715;113;922623;-78
2022/07/26 04:16:08;;;;;;;2.67;2.42;;;;;;;21.45;68.28;100049.03;457204;116;922506;-78
2022/07/26 04:17:11;;;;;;;3.02;2.77;;;;;;;21.44;68.22;100051.01;457307;116;930396;-78
2022/07/26 04:18:14;;;;;;;3.13;2.83;;;;;;;21.44;68.25;100052.95;457347;116;922897;-78
2022/07/26 04:19:17;;;;;;;2.95;2.48;;;;;;;21.44;68.26;100051.01;457300;116;922493;-78
2022/07/26 04:20:20;;;;;;;2.66;2.49;;;;;;;21.45;68.33;100049.03;457326;116;923080;-78
2022/07/26 04:21:24;;;;;;;3.03;2.83;;;;;;;21.46;68.41;100047.91;457363;115;922569;-78
2022/07/26 04:22:27;;;;;;;5.43;3.34;;;;;;;21.47;68.40;100041.25;457357;116;923185;-78
2022/07/26 04:23:30;;;;;;;3.00;2.78;;;;;;;21.50;68.31;100046.21;457309;116;923100;-78
2022/07/26 04:24:33;;;;;;;3.44;3.22;;;;;;;21.50;68.33;100043.44;457318;115;923301;-78
2022/07/26 04:25:36;;;;;;;4.43;2.98;;;;;;;21.51;68.29;100039.52;457346;116;922628;-78
2022/07/26 04:26:41;;;;;;;3.82;3.38;;;;;;;21.52;68.36;100044.77;456899;116;922505;-78
2022/07/26 04:27:44;;;;;;;3.72;3.44;;;;;;;21.54;68.27;100038.93;457388;116;923097;-78
2022/07/26 04:28:48;;;;;;;3.11;2.87;;;;;;;21.54;68.23;100038.93;457294;116;922872;-78
2022/07/26 04:29:51;;;;;;;3.83;3.11;;;;;;;21.55;68.21;100040.59;457418;115;923294;-78
2022/07/26 04:30:55;;;;;;;2.91;2.62;;;;;;;21.56;68.14;100043.03;463455;114;922602;-78
2022/07/26 04:31:58;;;;;;;2.89;2.69;;;;;;;21.57;68.10;100044.69;465364;114;923061;-78
2022/07/26 04:33:01;;;;;;;2.69;2.50;;;;;;;21.58;68.12;100045.52;465453;114;922560;-78
2022/07/26 04:34:04;;;;;;;2.87;2.56;;;;;;;21.61;68.08;100044.94;465392;114;922672;-78
2022/07/26 04:35:08;;;;;;;2.62;2.38;;;;;;;21.61;67.93;100040.18;465344;114;922677;-78
2022/07/26 04:36:12;;;;;;;2.88;2.64;;;;;;;21.63;67.94;100045.44;465290;114;930322;-78
2022/07/26 04:37:15;;;;;;;2.45;2.25;;;;;;;21.64;67.78;100044.31;465423;114;922764;-78
2022/07/26 04:38:18;;;;;;;2.99;2.75;;;;;;;21.66;67.80;100046.80;465412;114;922544;-78
2022/07/26 04:39:23;;;;;;;3.18;2.96;;;;;;;21.67;67.74;100038.16;465297;114;922543;-77
2022/07/26 04:40:27;;;;;;;3.71;2.92;;;;;;;21.69;67.71;100049.78;455470;116;930643;-78
2022/07/26 04:41:32;;;;;;;3.06;2.86;;;;;;;21.69;67.68;100047.02;456324;114;923123;-78
2022/07/26 04:42:36;;;;;;;2.77;2.59;;;;;;;21.71;67.69;100036.45;465447;114;922521;-78
2022/07/26 04:43:39;;;;;;;3.10;2.84;;;;;;;21.73;67.66;100036.95;465356;114;923044;-78
2022/07/26 04:44:42;;;;;;;3.29;3.00;;;;;;;21.77;67.65;100045.52;465379;114;922924;-78
2022/07/26 04:45:45;;;;;;;3.00;2.79;;;;;;;21.79;67.64;100043.25;465442;114;922622;-78
2022/07/26 04:46:49;;;;;;;3.12;2.85;;;;;;;21.81;67.70;100044.61;465303;114;922570;-78
2022/07/26 04:47:52;;;;;;;3.34;3.04;;;;;;;21.83;67.61;100039.56;465509;114;922615;-78
2022/07/26 04:48:55;;;;;;;2.96;2.76;;;;;;;21.85;67.41;100039.27;465462;114;922566;-78
2022/07/26 04:49:58;;;;;;;3.18;2.87;;;;;;;21.88;67.35;100049.78;465495;114;922754;-78
2022/07/26 04:51:01;;;;;;;3.34;2.95;;;;;;;21.89;67.31;100040.30;465431;114;922451;-78
2022/07/26 04:52:05;;;;;;;2.69;2.48;;;;;;;21.91;67.25;100049.98;465452;114;922670;-78
2022/07/26 04:53:09;;;;;;;2.91;2.66;;;;;;;21.93;67.20;100035.81;465307;114;922811;-78
2022/07/26 04:54:14;;;;;;;3.42;2.73;;;;;;;21.95;67.14;100047.45;465241;114;922604;-78
2022/07/26 04:55:17;;;;;;;2.30;2.09;;;;;;;21.97;67.04;100042.43;465309;114;922556;-78